createdAt,value
2023-02-14T00:01:10.041Z,11.25
2023-02-14T00:03:37.005Z,11.32
2023-02-14T00:06:09.068Z,10.80
2023-02-14T00:08:36.888Z,11.15
2023-02-14T00:11:05.466Z,10.27
2023-02-14T00:13:32.538Z,10.52
2023-02-14T00:15:59.328Z,11.60
2023-02-14T00:18:46.354Z,11.85
2023-02-14T00:21:13.134Z,11.80
2023-02-14T00:23:40.089Z,12.07
2023-02-14T00:26:13.789Z,11.32
2023-02-14T00:28:42.335Z,12.07
2023-02-14T00:31:09.570Z,11.55
2023-02-14T00:33:36.556Z,11.15
2023-02-14T00:36:04.681Z,12.50
2023-02-14T00:38:31.416Z,11.75
2023-02-14T00:40:59.273Z,11.63
2023-02-14T00:43:26.207Z,10.77
2023-02-14T00:45:52.967Z,10.77
2023-02-14T00:48:19.689Z,11.63
2023-02-14T00:50:46.417Z,12.27
2023-02-14T00:53:13.469Z,11.70
2023-02-14T00:55:40.314Z,12.43
2023-02-14T00:58:08.347Z,11.45
2023-02-14T01:00:35.157Z,11.77
2023-02-14T01:03:01.856Z,11.68
2023-02-14T01:05:29.182Z,13.07
2023-02-14T01:07:56.066Z,11.95
2023-02-14T01:10:22.830Z,12.48
2023-02-14T01:12:51.178Z,11.25
2023-02-14T01:15:18.055Z,12.77
2023-02-14T01:17:44.781Z,12.07
2023-02-14T01:20:11.828Z,13.23
2023-02-14T01:22:38.757Z,11.52
2023-02-14T01:25:06.304Z,12.27
2023-02-14T01:27:33.669Z,12.48
2023-02-14T01:30:00.541Z,12.45
2023-02-14T01:32:30.868Z,13.07
2023-02-14T01:34:57.967Z,12.95
2023-02-14T01:37:24.789Z,12.63
2023-02-14T01:39:51.508Z,12.48
2023-02-14T01:42:18.433Z,12.55
2023-02-14T01:44:45.081Z,11.70
2023-02-14T01:47:12.592Z,11.90
2023-02-14T01:49:44.262Z,12.45
2023-02-14T01:52:25.213Z,12.25
2023-02-14T01:55:06.813Z,12.27
2023-02-14T01:57:49.003Z,11.57
2023-02-14T02:00:35.692Z,11.02
2023-02-14T02:03:05.164Z,11.88
2023-02-14T02:05:31.993Z,13.13
2023-02-14T02:08:00.472Z,12.40
2023-02-14T02:10:28.238Z,13.10
2023-02-14T02:12:55.629Z,12.82
2023-02-14T02:15:26.962Z,12.60
2023-02-14T02:18:16.671Z,12.68
2023-02-14T02:20:47.573Z,12.32
2023-02-14T02:23:45.504Z,11.70
2023-02-14T02:26:33.840Z,12.48
2023-02-14T02:29:35.268Z,12.05
2023-02-14T02:32:20.571Z,11.75
2023-02-14T02:35:05.612Z,11.95
2023-02-14T02:37:52.597Z,11.27
2023-02-14T02:40:44.650Z,11.18
2023-02-14T02:43:30.906Z,10.90
2023-02-14T02:46:40.830Z,11.18
2023-02-14T02:49:50.841Z,11.70
2023-02-14T02:53:03.920Z,11.68
2023-02-14T02:56:03.726Z,12.23
2023-02-14T02:58:36.955Z,11.07
2023-02-14T03:01:09.828Z,11.10
2023-02-14T03:06:22.603Z,11.55
2023-02-14T03:08:49.370Z,11.55
2023-02-14T03:11:16.315Z,11.30
2023-02-14T03:13:57.719Z,11.43
2023-02-14T03:16:53.723Z,10.60
2023-02-14T03:20:17.604Z,10.82
2023-02-14T03:23:15.815Z,11.07
2023-02-14T03:26:01.384Z,11.75
2023-02-14T03:29:01.935Z,11.55
2023-02-14T03:31:47.166Z,10.85
2023-02-14T03:34:24.845Z,11.45
2023-02-14T03:36:59.006Z,11.38
2023-02-14T03:39:43.693Z,10.48
2023-02-14T03:42:19.050Z,11.57
2023-02-14T03:44:49.267Z,10.93
2023-02-14T03:47:21.177Z,10.80
2023-02-14T03:50:02.057Z,11.13
2023-02-14T03:52:30.179Z,10.70
2023-02-14T03:54:58.574Z,9.65
2023-02-14T03:58:01.809Z,10.90
2023-02-14T04:00:31.889Z,9.57
2023-02-14T04:03:06.050Z,10.05
2023-02-14T04:05:33.512Z,11.40
2023-02-14T04:08:00.256Z,11.27
2023-02-14T04:10:27.161Z,11.25
2023-02-14T04:12:54.150Z,10.82
2023-02-14T04:15:20.985Z,11.25
2023-02-14T04:18:06.322Z,11.07
2023-02-14T04:20:34.085Z,10.05
2023-02-14T04:23:03.211Z,10.30
2023-02-14T04:25:30.721Z,11.20
2023-02-14T04:27:57.434Z,11.38
2023-02-14T04:30:24.259Z,10.15
2023-02-14T04:32:51.047Z,11.60
2023-02-14T04:35:17.865Z,11.50
2023-02-14T04:37:45.624Z,11.32
2023-02-14T04:40:16.720Z,11.77
2023-02-14T04:42:44.912Z,10.43
2023-02-14T04:45:11.888Z,11.88
2023-02-14T04:47:39.202Z,11.50
2023-02-14T04:50:06.725Z,11.40
2023-02-14T04:52:33.473Z,11.68
2023-02-14T04:55:00.363Z,11.85
2023-02-14T04:57:27.097Z,11.85
2023-02-14T04:59:53.815Z,12.35
2023-02-14T05:02:20.545Z,12.70
2023-02-14T05:04:49.625Z,11.00
2023-02-14T05:07:16.643Z,11.10
2023-02-14T05:09:43.475Z,11.25
2023-02-14T05:12:10.519Z,10.38
2023-02-14T05:14:37.244Z,11.73
2023-02-14T05:17:04.108Z,11.70
2023-02-14T05:19:30.808Z,10.38
2023-02-14T05:21:57.511Z,11.57
2023-02-14T05:24:24.463Z,11.43
2023-02-14T05:26:51.221Z,11.60
2023-02-14T05:29:17.941Z,12.05
2023-02-14T05:31:44.735Z,11.75
2023-02-14T05:34:11.756Z,12.15
2023-02-14T05:36:38.526Z,12.52
2023-02-14T05:39:05.262Z,12.23
2023-02-14T05:41:32.036Z,12.27
2023-02-14T05:43:58.731Z,11.98
2023-02-14T05:46:25.518Z,10.95
2023-02-14T05:48:52.322Z,11.35
2023-02-14T05:51:19.274Z,11.70
2023-02-14T05:53:46.033Z,11.57
2023-02-14T05:56:12.776Z,11.02
2023-02-14T05:58:39.489Z,12.07
2023-02-14T06:01:06.214Z,11.90
2023-02-14T06:03:32.925Z,11.80
2023-02-14T06:05:59.695Z,11.15
2023-02-14T06:08:26.469Z,10.50
2023-02-14T06:10:53.331Z,11.23
2023-02-14T06:13:20.044Z,13.65
2023-02-14T06:15:46.767Z,12.73
2023-02-14T06:18:13.527Z,12.90
2023-02-14T06:20:40.231Z,11.98
2023-02-14T06:23:07.047Z,11.75
2023-02-14T06:25:35.050Z,12.40
2023-02-14T06:28:02.148Z,12.02
2023-02-14T06:30:29.077Z,11.27
2023-02-14T06:32:56.291Z,12.32
2023-02-14T06:35:23.055Z,12.63
2023-02-14T06:37:49.968Z,12.23
2023-02-14T06:40:16.736Z,12.68
2023-02-14T06:42:44.397Z,12.48
2023-02-14T06:45:11.308Z,13.23
2023-02-14T06:47:38.076Z,12.30
2023-02-14T06:50:05.677Z,12.48
2023-02-14T06:52:33.588Z,11.55
2023-02-14T06:55:00.303Z,12.07
2023-02-14T06:57:27.358Z,13.60
2023-02-14T06:59:54.202Z,12.80
2023-02-14T07:02:23.558Z,12.88
2023-02-14T07:04:51.453Z,14.13
2023-02-14T07:07:18.255Z,12.48
2023-02-14T07:09:45.002Z,12.35
2023-02-14T07:12:11.709Z,13.88
2023-02-14T07:14:38.456Z,13.73
2023-02-14T07:17:05.268Z,12.98
2023-02-14T07:19:32.160Z,14.10
2023-02-14T07:21:58.970Z,12.93
2023-02-14T07:24:25.747Z,13.50
2023-02-14T07:26:52.439Z,14.07
2023-02-14T07:29:19.282Z,14.27
2023-02-14T07:31:46.243Z,12.50
2023-02-14T07:34:13.139Z,13.15
2023-02-14T07:36:39.935Z,14.00
2023-02-14T07:39:06.731Z,14.63
2023-02-14T07:41:33.508Z,14.15
2023-02-14T07:44:00.344Z,14.85
2023-02-14T07:46:27.201Z,14.50
2023-02-14T07:48:54.016Z,14.48
2023-02-14T07:51:20.747Z,14.35
2023-02-14T07:53:47.572Z,16.98
2023-02-14T07:56:14.328Z,16.42
2023-02-14T07:58:41.131Z,15.38
2023-02-14T08:01:07.940Z,16.95
2023-02-14T08:03:34.639Z,16.05
2023-02-14T08:06:01.530Z,17.00
2023-02-14T08:08:30.485Z,16.20
2023-02-14T08:10:57.462Z,16.83
2023-02-14T08:13:24.560Z,15.95
2023-02-14T08:16:07.504Z,16.50
2023-02-14T08:18:41.945Z,17.00
2023-02-14T08:21:11.305Z,18.02
2023-02-14T08:23:38.480Z,17.60
2023-02-14T08:26:05.478Z,17.33
2023-02-14T08:28:33.169Z,17.75
2023-02-14T08:31:00.812Z,17.52
2023-02-14T08:33:28.017Z,18.73
2023-02-14T08:35:55.212Z,19.30
2023-02-14T08:38:22.015Z,18.00
2023-02-14T08:40:48.773Z,19.08
2023-02-14T08:43:15.719Z,19.92
2023-02-14T08:45:42.987Z,19.15
2023-02-14T08:48:11.567Z,19.17
2023-02-14T08:50:39.621Z,20.35
2023-02-14T08:53:08.600Z,19.33
2023-02-14T08:55:36.268Z,18.92
2023-02-14T08:58:03.796Z,19.40
2023-02-14T09:00:31.733Z,19.20
2023-02-14T09:02:58.606Z,19.23
2023-02-14T09:05:26.526Z,18.52
2023-02-14T09:07:56.295Z,18.42
2023-02-14T09:10:23.861Z,19.40
2023-02-14T09:12:50.691Z,19.08
2023-02-14T09:15:17.468Z,19.63
2023-02-14T09:17:44.527Z,20.67
2023-02-14T09:20:14.948Z,21.02
2023-02-14T09:22:41.889Z,20.95
2023-02-14T09:25:08.734Z,22.08
2023-02-14T09:27:35.844Z,21.83
2023-02-14T09:30:02.832Z,21.48
2023-02-14T09:32:29.740Z,21.27
2023-02-14T09:35:15.083Z,21.63
2023-02-14T09:37:41.837Z,21.52
2023-02-14T09:40:09.398Z,21.15
2023-02-14T09:42:57.949Z,20.80
2023-02-14T09:45:28.698Z,20.45
2023-02-14T09:48:23.367Z,21.17
2023-02-14T09:50:54.134Z,20.73
2023-02-14T09:53:20.897Z,21.52
2023-02-14T09:55:56.186Z,20.25
2023-02-14T09:58:29.959Z,21.70
2023-02-14T10:01:28.233Z,19.15
2023-02-14T10:04:01.206Z,20.70
2023-02-14T10:09:34.575Z,19.33
2023-02-14T10:12:02.106Z,19.60
2023-02-14T10:14:40.290Z,19.45
2023-02-14T10:17:15.224Z,19.25
2023-02-14T10:19:48.264Z,18.38
2023-02-14T10:22:17.186Z,17.83
2023-02-14T10:24:58.717Z,17.67
2023-02-14T10:27:34.963Z,16.80
2023-02-14T10:30:05.435Z,17.65
2023-02-14T10:33:02.894Z,18.33
2023-02-14T10:35:42.886Z,16.55
2023-02-14T10:38:17.415Z,16.73
2023-02-14T10:41:07.496Z,16.10
2023-02-14T10:44:00.615Z,16.77
2023-02-14T10:46:32.386Z,16.77
2023-02-14T10:49:17.271Z,15.95
2023-02-14T10:51:51.682Z,16.30
2023-02-14T10:54:53.378Z,16.63
2023-02-14T10:57:46.454Z,16.15
2023-02-14T11:00:28.199Z,15.95
2023-02-14T11:02:59.052Z,16.17
2023-02-14T11:05:28.311Z,15.55
2023-02-14T11:07:56.561Z,16.30
2023-02-14T11:10:27.479Z,15.82
2023-02-14T11:12:54.301Z,14.32
2023-02-14T11:15:33.390Z,15.13
2023-02-14T11:18:23.107Z,14.95
2023-02-14T11:21:17.799Z,15.13
2023-02-14T11:23:49.912Z,14.27
2023-02-14T11:26:22.906Z,13.73
2023-02-14T11:29:10.758Z,13.25
2023-02-14T11:31:39.921Z,12.90
2023-02-14T11:34:33.406Z,12.75
2023-02-14T11:37:00.596Z,13.77
2023-02-14T11:39:31.043Z,12.52
2023-02-14T11:42:00.735Z,12.30
2023-02-14T11:44:32.939Z,12.75
2023-02-14T11:47:41.637Z,12.45
2023-02-14T11:50:23.575Z,12.25
2023-02-14T11:52:54.771Z,12.38
2023-02-14T11:55:33.054Z,10.88
2023-02-14T11:58:02.238Z,11.13
2023-02-14T12:00:31.332Z,9.85
2023-02-14T12:03:01.228Z,10.63
2023-02-14T12:05:35.323Z,9.70
2023-02-14T12:08:05.224Z,9.70
2023-02-14T12:10:36.923Z,8.80
2023-02-14T12:13:09.386Z,10.02
2023-02-14T12:15:57.474Z,9.20
2023-02-14T12:18:45.629Z,9.60
2023-02-14T12:21:42.157Z,9.80
2023-02-14T12:24:16.771Z,10.75
2023-02-14T12:26:49.738Z,10.68
2023-02-14T12:29:27.870Z,9.85
2023-02-14T12:32:00.863Z,9.70
2023-02-14T12:37:16.735Z,10.63
2023-02-14T12:40:01.472Z,10.52
2023-02-14T12:42:46.901Z,9.70
2023-02-14T12:45:44.327Z,9.27
2023-02-14T12:48:48.679Z,9.23
2023-02-14T12:51:29.502Z,8.25
2023-02-14T12:54:02.437Z,9.02
2023-02-14T12:56:32.193Z,8.27
2023-02-14T12:59:07.686Z,8.75
2023-02-14T13:01:55.585Z,8.57
2023-02-14T13:04:55.453Z,7.70
2023-02-14T13:07:40.099Z,7.70
2023-02-14T13:10:36.220Z,7.28
2023-02-14T13:13:31.326Z,7.20
2023-02-14T13:16:18.485Z,7.05
2023-02-14T13:19:30.808Z,7.05
2023-02-14T13:21:59.859Z,6.70
2023-02-14T13:24:33.928Z,6.50
2023-02-14T13:27:03.230Z,6.30
2023-02-14T13:29:41.698Z,6.75
2023-02-14T13:32:13.904Z,6.55
2023-02-14T13:34:48.085Z,5.70
2023-02-14T13:37:21.559Z,6.18
2023-02-14T13:39:58.439Z,6.38
2023-02-14T13:42:46.606Z,6.32
2023-02-14T13:45:40.322Z,6.80
2023-02-14T13:48:18.471Z,6.18
2023-02-14T13:51:04.155Z,6.20
2023-02-14T13:53:39.838Z,6.18
2023-02-14T13:56:29.331Z,6.20
2023-02-14T13:58:59.986Z,6.13
2023-02-14T14:01:32.601Z,6.05
2023-02-14T14:04:02.618Z,6.13
2023-02-14T14:06:29.922Z,6.40
2023-02-14T14:08:57.219Z,6.07
2023-02-14T14:11:24.025Z,6.18
2023-02-14T14:13:50.746Z,6.38
2023-02-14T14:16:23.498Z,6.93
2023-02-14T14:18:52.364Z,6.43
2023-02-14T14:21:26.873Z,6.80
2023-02-14T14:24:20.102Z,12.45
2023-02-14T14:26:57.374Z,14.98
2023-02-14T14:29:33.629Z,14.80
2023-02-14T14:32:09.154Z,13.75
2023-02-14T14:34:35.953Z,15.20
2023-02-14T14:37:05.457Z,14.30
2023-02-14T14:39:35.262Z,14.50
2023-02-14T14:42:07.720Z,14.73
2023-02-14T14:44:36.115Z,15.10
2023-02-14T14:47:02.989Z,13.98
2023-02-14T14:49:31.813Z,11.30
2023-02-14T14:51:58.592Z,10.35
2023-02-14T14:54:27.501Z,9.90
2023-02-14T14:57:04.002Z,10.95
2023-02-14T14:59:36.062Z,11.23
2023-02-14T15:02:07.423Z,10.43
2023-02-14T15:04:35.721Z,10.10
2023-02-14T15:07:30.179Z,9.50
2023-02-14T15:09:56.971Z,10.43
2023-02-14T15:12:43.174Z,9.77
2023-02-14T15:15:16.621Z,10.25
2023-02-14T15:17:44.795Z,10.40
2023-02-14T15:20:17.451Z,10.70
2023-02-14T15:22:46.753Z,9.80
2023-02-14T15:25:22.025Z,11.13
2023-02-14T15:27:49.204Z,9.25
2023-02-14T15:30:19.262Z,10.70
2023-02-14T15:32:48.045Z,9.93
2023-02-14T15:35:16.930Z,11.07
2023-02-14T15:37:45.683Z,10.45
2023-02-14T15:40:24.668Z,11.57
2023-02-14T15:42:56.498Z,11.40
2023-02-14T15:45:27.612Z,11.10
2023-02-14T15:48:00.973Z,11.18
2023-02-14T15:50:31.906Z,10.70
2023-02-14T15:53:08.711Z,11.35
2023-02-14T15:55:36.819Z,11.10
2023-02-14T15:58:07.256Z,11.10
2023-02-14T16:00:35.176Z,11.02
2023-02-14T16:03:12.687Z,11.25
2023-02-14T16:05:47.308Z,12.02
2023-02-14T16:08:36.322Z,12.07
2023-02-14T16:11:13.523Z,13.23
2023-02-14T16:13:47.838Z,11.85
2023-02-14T16:16:16.921Z,11.77
2023-02-14T16:18:49.487Z,13.88
2023-02-14T16:21:24.106Z,16.65
2023-02-14T16:24:14.231Z,14.68
2023-02-14T16:26:43.457Z,12.30
2023-02-14T16:29:13.077Z,13.55
2023-02-14T16:32:06.279Z,12.75
2023-02-14T16:34:30.415Z,13.02
2023-02-14T16:36:57.142Z,13.63
2023-02-14T16:39:25.008Z,12.82
2023-02-14T16:41:56.950Z,14.40
2023-02-14T16:44:23.724Z,14.27
2023-02-14T16:46:50.779Z,13.93
2023-02-14T16:49:17.585Z,14.75
2023-02-14T16:51:46.756Z,12.93
2023-02-14T16:54:21.074Z,14.43
2023-02-14T16:57:01.565Z,14.63
2023-02-14T16:59:28.792Z,13.40
2023-02-14T17:01:57.672Z,13.55
2023-02-14T17:04:24.918Z,14.50
2023-02-14T17:06:54.978Z,13.23
2023-02-14T17:09:26.126Z,13.45
2023-02-14T17:11:58.134Z,11.98
2023-02-14T17:14:28.952Z,13.63
2023-02-14T17:16:57.564Z,12.60
2023-02-14T17:19:24.494Z,11.52
2023-02-14T17:21:51.788Z,10.45
2023-02-14T17:24:18.519Z,9.50
2023-02-14T17:26:45.444Z,9.63
2023-02-14T17:29:13.362Z,10.10
2023-02-14T17:31:40.173Z,9.40
2023-02-14T17:34:06.985Z,11.35
2023-02-14T17:36:33.736Z,11.30
2023-02-14T17:39:00.667Z,11.63
2023-02-14T17:41:29.283Z,10.63
2023-02-14T17:44:00.152Z,10.25
2023-02-14T17:46:31.156Z,9.45
2023-02-14T17:48:58.632Z,9.15
2023-02-14T17:51:25.470Z,10.07
2023-02-14T17:53:52.314Z,10.18
2023-02-14T17:56:24.495Z,12.00
2023-02-14T17:58:53.156Z,11.90
2023-02-14T18:01:25.759Z,11.55
2023-02-14T18:03:54.457Z,11.10
2023-02-14T18:06:21.411Z,11.80
2023-02-14T18:08:50.508Z,12.45
2023-02-14T18:11:19.871Z,12.80
2023-02-14T18:13:46.750Z,13.25
2023-02-14T18:16:19.167Z,13.80
2023-02-14T18:18:46.208Z,10.18
2023-02-14T18:21:15.487Z,13.18
2023-02-14T18:23:43.452Z,13.98
2023-02-14T18:26:12.844Z,13.48
2023-02-14T18:28:40.160Z,13.88
2023-02-14T18:31:12.763Z,13.63
2023-02-14T18:33:40.149Z,13.07
2023-02-14T18:36:12.973Z,13.20
2023-02-14T18:38:40.659Z,13.50
2023-02-14T18:41:10.183Z,14.23
2023-02-14T18:43:37.940Z,14.80
2023-02-14T18:46:06.061Z,14.23
2023-02-14T18:48:33.051Z,15.07
2023-02-14T18:51:11.246Z,13.60
2023-02-14T18:53:39.342Z,12.20
2023-02-14T18:56:07.690Z,12.63
2023-02-14T18:58:35.485Z,13.95
2023-02-14T19:01:14.290Z,14.73
2023-02-14T19:03:41.800Z,14.52
2023-02-14T19:06:10.090Z,14.25
2023-02-14T19:08:38.516Z,15.15
2023-02-14T19:11:31.463Z,14.45
2023-02-14T19:14:01.064Z,14.80
2023-02-14T19:16:31.071Z,15.55
2023-02-14T19:18:59.028Z,14.77
2023-02-14T19:21:27.708Z,14.00
2023-02-14T19:23:58.948Z,13.95
2023-02-14T19:26:29.239Z,14.35
2023-02-14T19:28:58.271Z,13.57
2023-02-14T19:31:25.558Z,14.68
2023-02-14T19:33:53.879Z,15.15
2023-02-14T19:36:22.347Z,15.68
2023-02-14T19:38:51.345Z,16.52
2023-02-14T19:41:24.269Z,15.25
2023-02-14T19:46:39.951Z,15.40
2023-02-14T19:49:19.260Z,16.48
2023-02-14T19:51:55.127Z,15.48
2023-02-14T19:54:34.719Z,15.30
2023-02-14T19:57:04.066Z,14.25
2023-02-14T20:03:07.809Z,15.55
2023-02-14T20:06:00.841Z,15.20
2023-02-14T20:08:27.665Z,14.77
2023-02-14T20:10:54.606Z,16.85
2023-02-14T20:13:21.721Z,15.65
2023-02-14T20:15:48.483Z,16.10
2023-02-14T20:18:15.235Z,16.52
2023-02-14T20:21:04.623Z,16.48
2023-02-14T20:23:32.730Z,16.15
2023-02-14T20:25:59.757Z,16.30
2023-02-14T20:28:28.776Z,16.20
2023-02-14T20:30:55.627Z,15.02
2023-02-14T20:36:59.172Z,17.67
2023-02-14T20:39:54.113Z,16.50
2023-02-14T20:42:20.923Z,17.58
2023-02-14T20:44:53.245Z,17.50
2023-02-14T20:47:20.122Z,16.95
2023-02-14T20:49:52.726Z,16.38
2023-02-14T20:52:19.565Z,15.13
2023-02-14T20:54:46.502Z,15.90
2023-02-14T20:57:15.721Z,16.58
2023-02-14T20:59:44.773Z,16.42
2023-02-14T21:02:12.009Z,15.77
2023-02-14T21:04:38.828Z,17.05
2023-02-14T21:07:08.810Z,16.08
2023-02-14T21:09:37.740Z,15.98
2023-02-14T21:12:07.480Z,16.27
2023-02-14T21:14:34.349Z,17.05
2023-02-14T21:17:01.196Z,17.00
2023-02-14T21:19:28.515Z,16.58
2023-02-14T21:21:55.371Z,17.05
2023-02-14T21:24:22.090Z,17.08
2023-02-14T21:26:48.868Z,16.58
2023-02-14T21:29:15.591Z,16.63
2023-02-14T21:31:42.978Z,16.75
2023-02-14T21:34:09.949Z,16.70
2023-02-14T21:36:36.797Z,17.17
2023-02-14T21:39:04.896Z,17.15
2023-02-14T21:41:32.060Z,16.58
2023-02-14T21:47:22.213Z,16.37
2023-02-14T21:52:51.753Z,17.63
2023-02-14T21:55:18.584Z,16.40
2023-02-14T21:57:45.409Z,16.73
2023-02-14T22:00:17.936Z,17.48
2023-02-14T22:02:44.842Z,18.27
2023-02-14T22:05:12.009Z,18.67
2023-02-14T22:07:39.127Z,18.33
2023-02-14T22:10:33.839Z,19.13
2023-02-14T22:13:00.656Z,17.83
2023-02-14T22:15:27.467Z,17.52
2023-02-14T22:17:54.172Z,17.85
2023-02-14T22:20:20.999Z,19.10
2023-02-14T22:22:47.727Z,18.50
2023-02-14T22:25:14.514Z,17.92
2023-02-14T22:27:41.263Z,18.08
2023-02-14T22:30:08.653Z,18.70
2023-02-14T22:32:35.472Z,17.63
2023-02-14T22:35:02.208Z,18.02
2023-02-14T22:37:29.151Z,18.77
2023-02-14T22:39:55.853Z,19.00
2023-02-14T22:42:22.568Z,18.80
2023-02-14T22:44:49.333Z,20.88
2023-02-14T22:47:16.112Z,19.58
2023-02-14T22:49:42.960Z,18.85
2023-02-14T22:52:09.666Z,19.52
2023-02-14T22:54:36.496Z,19.58
2023-02-14T22:57:03.454Z,18.83
2023-02-14T22:59:32.113Z,18.73
2023-02-14T23:01:59.571Z,18.20
2023-02-14T23:04:26.642Z,17.90
2023-02-14T23:06:54.156Z,18.02
2023-02-14T23:09:22.300Z,19.58
2023-02-14T23:11:49.688Z,18.95
2023-02-14T23:14:36.520Z,19.38
2023-02-14T23:17:18.929Z,18.15
2023-02-14T23:20:04.879Z,18.13
2023-02-14T23:22:37.823Z,17.95
2023-02-14T23:25:08.165Z,18.17
2023-02-14T23:27:44.638Z,18.52
2023-02-14T23:30:14.441Z,18.25
2023-02-14T23:32:41.873Z,20.15
2023-02-14T23:35:09.248Z,19.73
2023-02-14T23:37:36.138Z,17.95
2023-02-14T23:40:04.007Z,18.70
2023-02-14T23:42:30.885Z,17.67
2023-02-14T23:45:17.648Z,19.27
2023-02-14T23:47:44.495Z,18.95
2023-02-14T23:50:11.321Z,17.80
2023-02-14T23:52:41.889Z,17.73
2023-02-14T23:55:09.361Z,19.33
2023-02-14T23:57:37.016Z,18.40
